Rincon (215, 217, 682) Station Data

Red Flag Warning: No
Fire Weather Zone: 250
SDGE Region: North East
Lat/Lon: 33.288/-116.956

Observations

Time Wind Speed/Gust Temp(F) RH Fuel Moist Fuel Temp(F) Dewpt(F) Tmax(F) Tmin(F) Accum Precip 10-min Precip SL Press(mb)
4/26 2:40am 68 4 G 6 51° 86% - - 47° 54.6° 50.6° - - 928.0
4/26 2:30am 59 4 G 7 52° 82% - - 47° 54.6° 50.6° - - 926.0
4/26 2:20am 39 3 G 4 52° 84% - - 47° 54.6° 50.6° - - 927.0
4/26 2:10am 57 1 G 2 51° 86% - - 47° 54.6° 50.6° - - 928.0
4/26 2:00am 82 2 G 3 51° 85% - - 47° 54.6° 51° - - 927.0
4/26 1:50am 93 0 G 2 52° 83% - - 47° 54.6° 51.1° - - 927.0
4/26 1:40am 39 3 G 5 52° 84% - - 47° 54.6° 51.5° - - 927.0
4/26 1:30am 58 4 G 5 52° 82% - - 47° 54.6° 51.8° - - 926.0
4/26 1:20am 50 3 G 4 53° 79% - - 47° 54.6° 51.9° - - 925.0
4/26 1:10am 55 2 G 4 54° 78% - - 47° 54.6° 52.6° - - 925.0
4/26 1:00am 55 2 G 3 53° 79% - - 47° 54.6° 52.6° - - 925.0
4/26 12:50am 56 3 G 5 53° 79% - - 47° 54.6° 52.6° - - 925.0
4/26 12:40am 48 3 G 5 54° 80% - - 48° 54.6° 53.2° - - 926.0
4/26 12:30am 57 3 G 4 54° 79% - - 47° 54.6° 53.4° - - 925.0
4/26 12:20am 59 3 G 3 54° 77% - - 47° 54.6° 53.7° - - 925.0
4/26 12:10am 35 0 G 1 54° 77% - - 47° 54.1° 53.7° - - 925.0
4/26 12:00am 124 1 G 2 54° 76% - - 47° 69.4° 53.7° - - 924.0
4/25 11:50pm 356 2 G 3 55° 74% - - 47° 69.4° 54.8° - - 924.0
4/25 11:40pm 62 2 G 4 55° 76% - - 48° 69.4° 54.8° - - 925.0
4/25 11:30pm 64 3 G 4 55° 74% - - 47° 69.4° 54.8° - - 924.0
4/25 11:20pm 52 3 G 4 57° 70% - - 47° 69.4° 55° - - 922.0
4/25 11:10pm 68 3 G 3 56° 72% - - 47° 69.4° 55° - - 923.0
4/25 11:00pm 71 3 G 5 56° 71% - - 47° 69.4° 55° - - 923.0
4/25 10:50pm 65 3 G 4 57° 68% - - 47° 69.4° 55° - - 922.0
4/25 10:40pm 53 3 G 4 56° 70% - - 47° 69.4° 55° - - 922.0
4/25 10:30pm 75 3 G 4 56° 73% - - 47° 69.4° 55° - - 923.0
4/25 10:20pm 72 3 G 5 56° 73% - - 47° 69.4° 55.2° - - 923.0
4/25 10:10pm 77 4 G 5 56° 73% - - 47° 69.4° 55.5° - - 923.0
4/25 10:00pm 65 3 G 4 56° 72% - - 47° 69.4° 55.6° - - 923.0
4/25 9:50pm 54 3 G 6 56° 70% - - 47° 69.4° 55.9° - - 923.0
4/25 9:40pm 64 3 G 5 57° 69% - - 47° 69.4° 55.9° - - 922.0
4/25 9:30pm 82 3 G 4 57° 70% - - 47° 69.4° 55.9° - - 922.0
4/25 9:20pm 52 4 G 5 57° 69% - - 47° 69.4° 55.9° - - 922.0
4/25 9:10pm 49 3 G 5 57° 70% - - 47° 69.4° 55.9° - - 922.0
4/25 9:00pm 52 4 G 6 57° 70% - - 47° 69.4° 55.9° - - 922.0
4/25 8:50pm 54 4 G 5 57° 68% - - 47° 69.4° 55.9° - - 922.0
4/25 8:40pm 48 4 G 5 58° 67% - - 47° 69.4° 55.9° - - 922.0
4/25 8:30pm 44 4 G 6 58° 67% - - 47° 69.4° 55.9° - - 922.0
4/25 8:20pm 59 3 G 5 58° 66% - - 46° 69.4° 55.9° - - 921.0
4/25 8:10pm 52 3 G 5 58° 63% - - 46° 69.4° 55.9° - - 920.0
4/25 8:00pm 48 4 G 5 59° 59% - - 45° 69.4° 55.9° - - 918.0
4/25 7:50pm 48 3 G 4 60° 57% - - 45° 69.4° 55.9° - - 918.0
4/25 7:40pm 359 2 G 3 61° 57% - - 45° 69.4° 55.9° - - 918.0
4/25 7:30pm 10 1 G 2 61° 55% - - 45° 69.4° 55.9° - - 917.0
4/25 7:20pm 318 2 G 3 62° 52% - - 45° 69.4° 55.9° - - 916.0
4/25 7:10pm 312 3 G 6 63° 52% - - 45° 69.4° 55.9° - - 917.0
4/25 7:00pm 288 3 G 5 63° 54% - - 46° 69.4° 55.9° - - 917.0
4/25 6:50pm 280 4 G 7 63° 54% - - 46° 69.4° 55.9° - - 918.0
4/25 6:40pm 275 5 G 9 64° 54% - - 47° 69.4° 55.9° - - 918.0
4/25 6:30pm 280 4 G 6 65° 53% - - 48° 69.4° 55.9° - - 918.0
4/25 6:20pm 293 5 G 8 65° 53% - - 48° 69.4° 55.9° - - 918.0
4/25 6:10pm 280 5 G 8 65° 53% - - 48° 69.4° 55.9° - - 917.0
4/25 6:00pm 284 4 G 8 66° 53% - - 48° 69.4° 55.9° - - 918.0
4/25 5:50pm 290 5 G 8 66° 54% - - 49° 69.4° 55.9° - - 918.0
4/25 5:40pm 293 6 G 9 66° 53% - - 49° 69.4° 55.9° - - 918.0
4/25 5:30pm 290 5 G 8 66° 53% - - 49° 69.4° 55.9° - - 918.0
4/25 5:20pm 293 5 G 9 66° 52% - - 48° 69.4° 55.9° - - 917.0
4/25 5:10pm 300 5 G 8 66° 52% - - 48° 69.4° 55.9° - - 917.0
4/25 5:00pm 300 5 G 8 66° 52% - - 48° 69.4° 55.9° - - 917.0
4/25 4:50pm 271 4 G 8 67° 52% - - 48° 69.4° 55.9° - - 918.0
4/25 4:40pm 290 4 G 11 67° 51% - - 49° 69.4° 55.9° - - 917.0
4/25 4:30pm 283 5 G 8 66° 53% - - 49° 69.4° 55.9° - - 918.0
4/25 4:20pm 294 6 G 9 67° 53% - - 49° 69.4° 55.9° - - 918.0
4/25 4:10pm 298 5 G 10 66° 53% - - 49° 69.4° 55.9° - - 918.0
4/25 4:00pm 281 7 G 13 67° 51% - - 49° 69.4° 55.9° - - 917.0
4/25 3:50pm 283 6 G 13 67° 52% - - 49° 69.4° 55.9° - - 917.0
4/25 3:40pm 299 7 G 11 67° 51% - - 48° 69.4° 55.9° - - 917.0
4/25 3:30pm 296 7 G 11 67° 52% - - 49° 69.4° 55.9° - - 918.0
4/25 3:20pm 295 7 G 13 67° 52% - - 49° 69.4° 55.9° - - 917.0
4/25 3:10pm 280 6 G 11 68° 50% - - 49° 69.4° 55.9° - - 917.0
4/25 3:00pm 302 7 G 12 68° 51% - - 49° 69.4° 55.9° - - 917.0
4/25 2:50pm 298 5 G 12 67° 51% - - 48° 69.4° 55.9° - - 917.0
4/25 2:40pm 282 7 G 12 68° 50% - - 48° 69.4° 55.9° - - 917.0
4/25 2:30pm 291 5 G 11 67° 50% - - 48° 69.4° 55.9° - - 917.0
4/25 2:20pm 313 4 G 9 68° 49% - - 48° 69.4° 55.9° - - 917.0
4/25 2:10pm 280 5 G 10 67° 50% - - 48° 69.4° 55.9° - - 917.0
4/25 2:00pm 297 7 G 12 68° 49% - - 48° 69.4° 55.9° - - 917.0
4/25 1:50pm 283 7 G 12 68° 49% - - 48° 69.4° 55.9° - - 916.0
4/25 1:40pm 289 7 G 12 68° 48% - - 48° 69.4° 55.9° - - 916.0
4/25 1:30pm 297 6 G 11 68° 49% - - 48° 69.4° 55.9° - - 917.0
4/25 1:20pm 271 6 G 13 68° 49% - - 48° 68.6° 55.9° - - 917.0
4/25 1:10pm 321 5 G 12 68° 48% - - 47° 68.6° 55.9° - - 916.0
4/25 1:00pm 305 6 G 11 68° 49% - - 48° 68.6° 55.9° - - 917.0
4/25 12:50pm 321 5 G 10 67° 52% - - 49° 67.9° 55.9° - - 918.0
4/25 12:40pm 293 7 G 12 67° 51% - - 49° 67.8° 55.9° - - 917.0
4/25 12:30pm 300 5 G 9 67° 51% - - 48° 67.7° 55.9° - - 917.0
4/25 12:20pm 280 4 G 10 67° 49% - - 47° 67.7° 55.9° - - 916.0
4/25 12:10pm 265 7 G 13 66° 49% - - 47° 67.1° 55.9° - - 916.0
4/25 12:00pm 311 4 G 11 66° 48% - - 46° 66.9° 55.9° - - 916.0
4/25 11:50am 340 4 G 8 66° 49% - - 46° 66.6° 55.9° - - 916.0
4/25 11:40am 226 2 G 7 66° 50% - - 46° 66.1° 55.9° - - 916.0
4/25 11:30am 271 3 G 8 66° 52% - - 48° 65.8° 55.9° - - 918.0
4/25 11:20am 200 2 G 7 65° 54% - - 48° 65.4° 55.9° - - 918.0
4/25 11:10am 246 3 G 7 65° 54% - - 48° 65° 55.9° - - 918.0
4/25 11:00am 203 4 G 8 64° 55% - - 48° 65° 55.9° - - 918.0
4/25 10:50am 221 3 G 7 64° 56% - - 48° 64.9° 55.9° - - 919.0
4/25 10:40am 210 2 G 7 64° 58% - - 49° 64.9° 55.9° - - 919.0
4/25 10:30am 171 3 G 6 63° 59% - - 49° 64° 55.9° - - 920.0
4/25 10:20am 216 2 G 4 62° 62% - - 49° 63.2° 55.9° - - 921.0
4/25 10:10am 263 2 G 4 62° 61% - - 49° 62.7° 55.9° - - 920.0
4/25 10:00am 214 1 G 3 62° 62% - - 49° 62.7° 55.9° - - 921.0
4/25 9:50am 180 2 G 4 62° 64% - - 50° 62.7° 55.9° - - 921.0
4/25 9:40am 147 3 G 5 62° 65% - - 50° 62.7° 55.9° - - 922.0
4/25 9:30am 32 1 G 4 61° 66% - - 50° 61.7° 55.9° - - 922.0
4/25 9:20am 119 2 G 4 61° 68% - - 50° 61.5° 55.9° - - 923.0
4/25 9:10am 145 3 G 5 60° 70% - - 50° 61.5° 55.9° - - 923.0
4/25 9:00am 179 3 G 6 61° 70% - - 51° 61.5° 55.9° - - 923.0
4/25 8:50am 154 1 G 5 61° 71% - - 51° 61.5° 55.9° - - 924.0
4/25 8:40am 79 2 G 3 60° 71% - - 51° 60.9° 55.9° - - 924.0
4/25 8:30am 91 2 G 4 59° 75% - - 51° 60.1° 55.9° - - 925.0
4/25 8:20am 113 2 G 4 59° 76% - - 51° 59.4° 55.9° - - 925.0
4/25 8:10am 132 2 G 4 58° 79% - - 51° 58.6° 55.9° - - 927.0
4/25 8:00am 107 2 G 4 57° 80% - - 51° 57.8° 55.9° - - 927.0
4/25 7:50am 145 2 G 4 57° 80% - - 51° 57.8° 55.9° - - 927.0
4/25 7:40am 111 2 G 4 57° 79% - - 51° 57.8° 55.9° - - 926.0
4/25 7:30am 192 2 G 3 57° 79% - - 51° 57.8° 55.9° - - 926.0
4/25 7:20am 157 2 G 3 57° 80% - - 51° 57.8° 55.9° - - 927.0
4/25 7:10am 169 2 G 4 57° 81% - - 51° 57.8° 55.9° - - 927.0
4/25 7:00am 200 1 G 2 57° 81% - - 51° 57.8° 55.9° - - 927.0
4/25 6:50am 247 0 G 1 56° 82% - - 51° 57.8° 55.9° - - 927.0
4/25 6:40am 92 2 G 3 56° 82% - - 51° 57.8° 55.9° - - 927.0
4/25 6:30am 101 1 G 2 56° 81% - - 51° 57.8° 56° - - 927.0
4/25 6:20am 120 1 G 1 56° 81% - - 50° 57.8° 56° - - 927.0
4/25 6:10am 69 1 G 2 56° 81% - - 50° 57.8° 56° - - 927.0
4/25 6:00am 83 1 G 2 56° 80% - - 50° 57.8° 56° - - 927.0
4/25 5:50am 39 1 G 2 56° 80% - - 50° 57.8° 56.2° - - 926.0
4/25 5:40am 88 1 G 3 56° 80% - - 50° 57.8° 56.2° - - 926.0
4/25 5:30am 88 1 G 3 56° 80% - - 50° 57.8° 56.2° - - 927.0
4/25 5:20am 176 1 G 2 56° 80% - - 50° 57.8° 56.2° - - 926.0
4/25 5:10am 219 3 G 5 56° 80% - - 50° 57.8° 56.3° - - 926.0
4/25 5:00am 199 2 G 4 56° 80% - - 50° 57.8° 56.3° - - 927.0
4/25 4:50am 213 2 G 4 56° 81% - - 51° 57.8° 56.3° - - 927.0
4/25 4:40am 275 1 G 3 57° 81% - - 51° 57.8° 56.3° - - 927.0
4/25 4:30am 154 2 G 4 56° 82% - - 51° 57.8° 56.3° - - 927.0
4/25 4:20am 80 2 G 4 57° 83% - - 51° 57.8° 56.3° - - 928.0
4/25 4:10am 201 2 G 4 57° 83% - - 51° 57.8° 56.3° - - 928.0
4/25 4:00am 226 1 G 4 57° 83% - - 51° 57.8° 56.3° - - 928.0
4/25 3:50am 191 4 G 9 56° 83% - - 52° 57.8° 56.3° - - 928.0
4/25 3:40am 187 4 G 8 57° 83% - - 52° 57.8° 56.4° - - 928.0
4/25 3:30am 176 4 G 8 57° 82% - - 51° 57.8° 56.4° - - 928.0
4/25 3:20am 124 2 G 4 57° 82% - - 51° 57.8° 56.4° - - 927.0
4/25 3:10am 106 1 G 3 57° 82% - - 51° 57.8° 56.4° - - 927.0
4/25 3:00am 84 1 G 2 57° 81% - - 51° 57.8° 56.4° - - 927.0
4/25 2:50am 163 1 G 4 57° 81% - - 51° 57.8° 56.4° - - 927.0
4/25 2:40am 168 3 G 5 57° 81% - - 51° 57.8° 56.4° - - 927.0
4/25 2:30am 178 3 G 7 57° 81% - - 51° 57.8° 56.4° - - 927.0
4/25 2:20am 193 3 G 7 57° 80% - - 50° 57.8° 56.4° - - 927.0
4/25 2:10am 212 4 G 7 57° 79% - - 50° 57.8° 56.5° - - 926.0
4/25 2:00am 213 4 G 7 57° 78% - - 50° 57.8° 56.8° - - 926.0
4/25 1:50am 201 2 G 5 57° 79% - - 51° 57.8° 56.8° - - 926.0
4/25 1:40am 196 2 G 5 57° 80% - - 51° 57.8° 56.8° - - 927.0
4/25 1:30am 199 2 G 6 57° 81% - - 51° 57.8° 56.8° - - 927.0
4/25 1:20am 186 3 G 6 57° 82% - - 52° 57.8° 56.8° - - 928.0
4/25 1:10am 198 4 G 7 57° 82% - - 52° 57.8° 56.8° - - 928.0
4/25 1:00am 215 4 G 7 57° 81% - - 52° 57.8° 57.1° - - 927.0
4/25 12:50am 231 2 G 4 58° 79% - - 51° 57.8° 57.4° - - 927.0
4/25 12:40am 186 2 G 4 58° 79% - - 51° 57.8° 57.4° - - 926.0
4/25 12:30am 185 3 G 6 58° 79% - - 51° 57.8° 57.4° - - 926.0
4/25 12:20am 176 2 G 4 58° 79% - - 51° 57.8° 57.4° - - 926.0
4/25 12:10am 185 2 G 4 58° 79% - - 51° 57.8° 57.4° - - 927.0
4/25 12:00am 181 2 G 4 58° 80% - - 52° 71.4° 54.8° - - 927.0
4/24 11:50pm 188 2 G 6 58° 81% - - 52° 71.4° 54.8° - - 927.0
4/24 11:40pm 149 4 G 7 58° 80% - - 52° 71.4° 54.8° - - 927.0
4/24 11:30pm 169 3 G 6 58° 79% - - 51° 71.4° 54.8° - - 926.0
4/24 11:20pm 237 2 G 6 58° 79% - - 51° 71.4° 54.8° - - 926.0
4/24 11:10pm 243 2 G 5 58° 78% - - 51° 71.4° 54.8° - - 926.0
4/24 11:00pm 266 3 G 5 58° 78% - - 51° 71.4° 54.8° - - 926.0
4/24 10:50pm 262 3 G 5 58° 77% - - 51° 71.4° 54.8° - - 926.0
4/24 10:40pm 236 3 G 6 58° 76% - - 51° 71.4° 54.8° - - 926.0
4/24 10:30pm 233 4 G 8 59° 76% - - 51° 71.4° 54.8° - - 925.0
4/24 10:20pm 242 2 G 4 59° 76% - - 51° 71.4° 54.8° - - 926.0
4/24 10:10pm 165 1 G 4 59° 76% - - 51° 71.4° 54.8° - - 925.0
4/24 10:00pm 173 2 G 7 59° 76% - - 51° 71.4° 54.8° - - 926.0
4/24 9:50pm 210 3 G 7 59° 76% - - 51° 71.4° 54.8° - - 925.0
4/24 9:40pm 242 3 G 5 59° 75% - - 51° 71.4° 54.8° - - 925.0
4/24 9:30pm 206 3 G 8 59° 75% - - 51° 71.4° 54.8° - - 925.0
4/24 9:20pm 199 3 G 8 59° 75% - - 52° 71.4° 54.8° - - 925.0
4/24 9:10pm 225 4 G 8 60° 75% - - 52° 71.4° 54.8° - - 925.0
4/24 9:00pm 201 4 G 7 60° 74% - - 52° 71.4° 54.8° - - 925.0
4/24 8:50pm 195 5 G 9 60° 75% - - 52° 71.4° 54.8° - - 925.0
4/24 8:40pm 212 4 G 8 60° 74% - - 52° 71.4° 54.8° - - 925.0
4/24 8:30pm 227 2 G 4 60° 74% - - 52° 71.4° 54.8° - - 925.0
4/24 8:20pm 209 2 G 4 60° 73% - - 52° 71.4° 54.8° - - 925.0
4/24 8:10pm 199 3 G 7 60° 73% - - 52° 71.4° 54.8° - - 925.0
4/24 8:00pm 193 4 G 7 61° 72% - - 52° 71.4° 54.8° - - 924.0
4/24 7:50pm 192 4 G 10 61° 71% - - 51° 71.4° 54.8° - - 924.0
4/24 7:40pm 212 3 G 6 61° 71% - - 51° 71.4° 54.8° - - 924.0
4/24 7:30pm 227 5 G 10 61° 72% - - 52° 71.4° 54.8° - - 924.0
4/24 7:20pm 223 5 G 9 61° 71% - - 52° 71.4° 54.8° - - 924.0
4/24 7:10pm 226 5 G 9 62° 71% - - 52° 71.4° 54.8° - - 924.0
4/24 7:00pm 226 4 G 10 62° 70% - - 52° 71.4° 54.8° - - 924.0
4/24 6:50pm 246 4 G 8 62° 69% - - 52° 71.4° 54.8° - - 924.0
4/24 6:40pm 241 5 G 9 63° 68% - - 52° 71.4° 54.8° - - 923.0
4/24 6:30pm 234 4 G 8 64° 66% - - 52° 71.4° 54.8° - - 923.0
4/24 6:20pm 255 4 G 9 64° 64% - - 52° 71.4° 54.8° - - 922.0
4/24 6:10pm 237 3 G 7 65° 63% - - 52° 71.4° 54.8° - - 922.0
4/24 6:00pm 263 4 G 8 65° 62% - - 51° 71.4° 54.8° - - 921.0